Text Box: All records at near 07:00 local time
Kleivo 1 weather for Dec 2007
Month no. 13
Obs.
Da.
Temp. Dew Point Precip. Wind
Speed
Wind gusts Cloud cover Press. Humidity Wind dir. Sunny OPT
01.12.2007 5,1   0,0 12,0   1 961,7 92,0 135,0   55,0 %
02.12.2007 3,9   1,0 6,0   1 967,1 92,0 135,0   57,5 %
03.12.2007 -2,7   0,0 0,0   1 962,7 94,0 0,0   52,5 %
04.12.2007 1,4   0,0 0,0   1 981,0 93,0 135,0   57,5 %
05.12.2007 8,9   7,3 7,0   1 971,6 96,0 157,5   57,5 %
06.12.2007 6,9   0,0 20,0   1 965,8 94,0 202,5   50,0 %
07.12.2007 5,1   0,0 8,0   1 958,0 91,0 180,0   57,5 %
08.12.2007 1,9   0,0 0,0   1 973,2 92,0 337,5   57,5 %
09.12.2007 3,1   0,0 8,0   1 967,5 55,0 112,5   55,0 %
10.12.2007 -0,2   0,0 0,0   1 981,4 87,0 0,0   55,0 %
11.12.2007 -1,9   0,0 0,0   1 1003,7 94,0 337,5   55,0 %
12.12.2007 1,8   0,0 3,0   1 1017,9 60,0 112,5   57,5 %
13.12.2007 3,8   0,0 16,0   10 1040,0 66,0 180,0 1 72,5 %
14.12.2007 5,9   0,0 0,0   10 1036,9 79,0 0,0 1 85,0 %
15.12.2007 5,3   0,0 5,0   10 1021,0 78,0 135,0 1 82,5 %
16.12.2007 4,8   0,0 5,0   1 1023,4 76,0 180,0   57,5 %
17.12.2007 1,6   0,0 0,0   3 1027,1 78,0 22,5 1 62,5 %
18.12.2007 -2,4   0,0 0,0   0 1027,4 92,0 67,5   52,5 %
19.12.2007 0,6   0,0 0,0   1 1025,4 89,0 135,0   57,5 %
20.12.2007 -2,8   0,0 0,0   8 1020,0 92,0 67,5 1 70,0 %
21.12.2007 -1,9   0,0 1,0   8 1012,9 94,0 112,5 1 72,5 %
22.12.2007 0,9   0,0 12,0   1 1003,4 89,0 135,0   50,0 %
23.12.2007 2,8   0,0 12,0   1 1000,3 93,0 90,0   52,5 %
24.12.2007 6,3   2,0 25,0   1 992,5 84,0 180,0   47,5 %
25.12.2007 3,0   12,6 3,0   1 995,6 94,0 112,5   50,0 %
26.12.2007 3,5   0,0 3,0   1 983,7 94,0 135,0   60,0 %
27.12.2007 7,2   5,2 13,0   6 985,8 94,0 180,0 1 65,0 %
28.12.2007 4,8   7,7 13,0   1 988,8 90,0 180,0   47,5 %
29.12.2007 7,2   0,0 13,0   1 969,9 95,0 180,0   55,0 %
30.12.2007 5,3   2,0 0,0   1 991,2 90,0 180,0   62,5 %
31.12.2007 1,6   1,0 3,0   10 1025,4 87,0 45,0 1 80,0 %
Avrg/Sum 2,9   38,8 6,1   2,8 996,2 86,9 134,3 8 59,7 %